Time,TemperatureF,DewpointF,PressureIn,WindDirection,WindDirectionDegrees,WindSpeedMPH,WindSpeedGustMPH,Humidity,HourlyPrecipIn,Conditions,Clouds,dailyrainin,SoftwareType,DateUTC
2013-02-23 00:01:00,15.6,12.0,30.64,North,6,0.0,1.0,86,0.00,,,0.26,weatherlink.com 1.10,2013-02-23 07:01:00,
2013-02-23 00:16:00,14.9,11.0,30.64,North,6,0.0,2.0,85,0.00,,,0.26,weatherlink.com 1.10,2013-02-23 07:16:00,
2013-02-23 00:31:00,14.5,11.0,30.64,North,6,0.0,2.0,85,0.00,,,0.26,weatherlink.com 1.10,2013-02-23 07:31:00,
2013-02-23 00:46:00,13.9,10.0,30.64,North,6,0.0,2.0,84,0.00,,,0.26,weatherlink.com 1.10,2013-02-23 07:46:00,
2013-02-23 01:01:00,13.7,10.0,30.64,North,6,0.0,0.0,84,0.00,,,0.26,weatherlink.com 1.10,2013-02-23 08:01:00,
2013-02-23 01:16:00,13.7,10.0,30.64,North,6,0.0,2.0,84,0.00,,,0.26,weatherlink.com 1.10,2013-02-23 08:16:00,
2013-02-23 01:32:00,12.7,9.0,30.64,North,6,0.0,2.0,83,0.00,,,0.26,weatherlink.com 1.10,2013-02-23 08:32:00,
2013-02-23 01:46:00,12.2,8.0,30.63,North,6,0.0,1.0,84,0.00,,,0.26,weatherlink.com 1.10,2013-02-23 08:46:00,
2013-02-23 02:01:00,12.1,9.0,30.64,North,6,0.0,2.0,86,0.00,,,0.26,weatherlink.com 1.10,2013-02-23 09:01:00,
2013-02-23 02:16:00,11.5,8.0,30.63,North,6,0.0,1.0,85,0.00,,,0.26,weatherlink.com 1.10,2013-02-23 09:16:00,
2013-02-23 02:31:00,11.5,8.0,30.63,North,6,0.0,1.0,85,0.00,,,0.26,weatherlink.com 1.10,2013-02-23 09:31:00,
2013-02-23 02:46:00,11.4,8.0,30.62,North,6,0.0,2.0,84,0.00,,,0.26,weatherlink.com 1.10,2013-02-23 09:46:00,
2013-02-23 03:01:00,11.4,8.0,30.62,North,6,0.0,2.0,86,0.00,,,0.26,weatherlink.com 1.10,2013-02-23 10:01:00,
2013-02-23 03:16:00,11.2,7.0,30.63,North,6,0.0,2.0,84,0.00,,,0.26,weatherlink.com 1.10,2013-02-23 10:16:00,
2013-02-23 03:32:00,10.9,7.0,30.62,North,6,0.0,0.0,85,0.00,,,0.26,weatherlink.com 1.10,2013-02-23 10:32:00,
2013-02-23 03:46:00,10.6,7.0,30.61,North,6,1.0,2.0,84,0.00,,,0.26,weatherlink.com 1.10,2013-02-23 10:46:00,
2013-02-23 04:02:00,11.0,8.0,30.62,North,6,0.0,2.0,86,0.00,,,0.26,weatherlink.com 1.10,2013-02-23 11:02:00,
2013-02-23 04:17:00,11.1,7.0,30.61,North,6,0.0,1.0,84,0.00,,,0.26,weatherlink.com 1.10,2013-02-23 11:17:00,
2013-02-23 04:32:00,10.7,7.0,30.61,North,6,2.0,3.0,84,0.00,,,0.26,weatherlink.com 1.10,2013-02-23 11:32:00,
2013-02-23 04:47:00,10.5,7.0,30.61,North,6,0.0,2.0,85,0.00,,,0.26,weatherlink.com 1.10,2013-02-23 11:47:00,
2013-02-23 05:02:00,9.8,6.0,30.61,North,6,1.0,2.0,84,0.00,,,0.26,weatherlink.com 1.10,2013-02-23 12:02:00,
2013-02-23 05:17:00,9.7,6.0,30.60,NNE,17,1.0,3.0,85,0.00,,,0.26,weatherlink.com 1.10,2013-02-23 12:17:00,
2013-02-23 05:32:00,10.5,7.0,30.59,NNE,21,0.0,3.0,86,0.00,,,0.26,weatherlink.com 1.10,2013-02-23 12:32:00,
2013-02-23 05:47:00,11.3,8.0,30.59,NNE,21,1.0,1.0,86,0.00,,,0.26,weatherlink.com 1.10,2013-02-23 12:47:00,
2013-02-23 06:02:00,11.8,9.0,30.58,NNE,25,0.0,3.0,87,0.00,,,0.26,weatherlink.com 1.10,2013-02-23 13:02:00,
2013-02-23 06:17:00,12.1,9.0,30.57,NNE,25,0.0,2.0,86,0.00,,,0.26,weatherlink.com 1.10,2013-02-23 13:17:00,
2013-02-23 06:32:00,11.5,8.0,30.57,NNE,25,0.0,2.0,86,0.00,,,0.26,weatherlink.com 1.10,2013-02-23 13:32:00,
2013-02-23 06:47:00,10.8,7.0,30.57,NNE,25,0.0,1.0,84,0.00,,,0.26,weatherlink.com 1.10,2013-02-23 13:47:00,
2013-02-23 07:02:00,9.8,6.0,30.57,NNE,25,0.0,2.0,85,0.00,,,0.26,weatherlink.com 1.10,2013-02-23 14:02:00,
2013-02-23 07:17:00,9.8,6.0,30.57,NNE,25,0.0,2.0,85,0.00,,,0.26,weatherlink.com 1.10,2013-02-23 14:17:00,
2013-02-23 07:32:00,10.0,7.0,30.58,NNE,25,1.0,2.0,86,0.00,,,0.26,weatherlink.com 1.10,2013-02-23 14:32:00,
2013-02-23 07:47:00,9.9,6.0,30.58,NNE,25,0.0,1.0,84,0.00,,,0.26,weatherlink.com 1.10,2013-02-23 14:47:00,
2013-02-23 08:02:00,11.0,8.0,30.59,NNE,25,0.0,1.0,86,0.00,,,0.26,weatherlink.com 1.10,2013-02-23 15:02:00,
2013-02-23 08:17:00,13.3,10.0,30.60,NNE,25,0.0,1.0,87,0.00,,,0.26,weatherlink.com 1.10,2013-02-23 15:17:00,
2013-02-23 08:32:00,16.3,13.0,30.60,NNE,25,0.0,1.0,85,0.00,,,0.26,weatherlink.com 1.10,2013-02-23 15:32:00,
2013-02-23 08:47:00,19.0,15.0,30.60,NNE,25,0.0,0.0,85,0.00,,,0.26,weatherlink.com 1.10,2013-02-23 15:47:00,
2013-02-23 09:02:00,22.2,18.0,30.60,NNE,25,0.0,2.0,84,0.00,,,0.26,weatherlink.com 1.10,2013-02-23 16:02:00,
2013-02-23 09:17:00,25.4,20.0,30.59,NNE,25,0.0,2.0,79,0.00,,,0.26,weatherlink.com 1.10,2013-02-23 16:17:00,
2013-02-23 09:32:00,27.6,21.0,30.58,WSW,240,2.0,3.0,75,0.00,,,0.26,weatherlink.com 1.10,2013-02-23 16:32:00,
2013-02-23 09:47:00,29.2,21.0,30.56,SSE,166,0.0,3.0,72,0.00,,,0.26,weatherlink.com 1.10,2013-02-23 16:47:00,
2013-02-23 10:02:00,30.9,21.0,30.56,SSE,150,3.0,6.0,68,0.00,,,0.26,weatherlink.com 1.10,2013-02-23 17:02:00,
2013-02-23 10:17:00,32.1,21.0,30.55,SSE,150,0.0,4.0,65,0.00,,,0.26,weatherlink.com 1.10,2013-02-23 17:17:00,
2013-02-23 10:32:00,32.9,21.0,30.54,SSW,209,1.0,5.0,63,0.00,,,0.26,weatherlink.com 1.10,2013-02-23 17:32:00,
2013-02-23 10:47:00,33.2,21.0,30.54,WSW,240,1.0,7.0,61,0.00,,,0.26,weatherlink.com 1.10,2013-02-23 17:47:00,
2013-02-23 11:02:00,33.5,21.0,30.54,SW,228,2.0,8.0,60,0.00,,,0.00,weatherlink.com 1.10,2013-02-23 18:02:00,
2013-02-23 11:17:00,33.4,21.0,30.52,SW,233,1.0,8.0,61,0.00,,,0.00,weatherlink.com 1.10,2013-02-23 18:17:00,
2013-02-23 11:32:00,34.3,22.0,30.50,SW,233,4.0,8.0,60,0.00,,,0.00,weatherlink.com 1.10,2013-02-23 18:32:00,
2013-02-23 11:47:00,35.1,21.0,30.48,WSW,251,5.0,8.0,57,0.00,,,0.00,weatherlink.com 1.10,2013-02-23 18:47:00,
2013-02-23 12:02:00,36.0,21.0,30.48,WSW,238,3.0,8.0,54,0.00,,,0.00,weatherlink.com 1.10,2013-02-23 19:02:00,
2013-02-23 12:17:00,36.7,21.0,30.47,SW,230,3.0,9.0,54,0.00,,,0.00,weatherlink.com 1.10,2013-02-23 19:17:00,
2013-02-23 12:32:00,37.1,22.0,30.46,SSW,212,2.0,7.0,55,0.00,,,0.00,weatherlink.com 1.10,2013-02-23 19:32:00,
2013-02-23 12:47:00,36.5,22.0,30.45,SW,216,4.0,8.0,55,0.01,,,0.01,weatherlink.com 1.10,2013-02-23 19:47:00,
2013-02-23 13:02:00,37.4,22.0,30.44,WSW,241,5.0,7.0,53,0.03,,,0.03,weatherlink.com 1.10,2013-02-23 20:02:00,
2013-02-23 13:17:00,37.2,20.0,30.41,West,260,3.0,10.0,51,0.05,,,0.05,weatherlink.com 1.10,2013-02-23 20:17:00,
2013-02-23 13:33:00,38.6,22.0,30.39,South,179,6.0,8.0,51,0.06,,,0.06,weatherlink.com 1.10,2013-02-23 20:33:00,
2013-02-23 13:48:00,39.0,22.0,30.38,SW,221,4.0,8.0,50,0.06,,,0.07,weatherlink.com 1.10,2013-02-23 20:48:00,
2013-02-23 14:03:00,39.5,23.0,30.36,South,184,1.0,6.0,53,0.06,,,0.09,weatherlink.com 1.10,2013-02-23 21:03:00,
2013-02-23 14:18:00,39.9,23.0,30.34,West,266,4.0,8.0,52,0.05,,,0.10,weatherlink.com 1.10,2013-02-23 21:18:00,
2013-02-23 14:33:00,40.2,25.0,30.33,SW,232,3.0,11.0,54,0.05,,,0.11,weatherlink.com 1.10,2013-02-23 21:33:00,
2013-02-23 14:48:00,40.6,24.0,30.31,SSE,155,1.0,9.0,52,0.04,,,0.12,weatherlink.com 1.10,2013-02-23 21:48:00,
2013-02-23 15:03:00,40.5,23.0,30.30,South,185,3.0,8.0,51,0.04,,,0.13,weatherlink.com 1.10,2013-02-23 22:03:00,
2013-02-23 15:18:00,41.0,24.0,30.30,SW,216,4.0,11.0,52,0.04,,,0.14,weatherlink.com 1.10,2013-02-23 22:18:00,
2013-02-23 15:33:00,41.0,24.0,30.28,South,190,4.0,9.0,51,0.04,,,0.15,weatherlink.com 1.10,2013-02-23 22:33:00,
2013-02-23 15:48:00,41.1,24.0,30.28,WSW,252,6.0,9.0,50,0.04,,,0.16,weatherlink.com 1.10,2013-02-23 22:48:00,
2013-02-23 16:03:00,40.8,25.0,30.26,SSE,151,4.0,13.0,53,0.03,,,0.16,weatherlink.com 1.10,2013-02-23 23:03:00,
2013-02-23 16:18:00,40.4,24.0,30.25,South,182,5.0,10.0,52,0.03,,,0.17,weatherlink.com 1.10,2013-02-23 23:18:00,
2013-02-23 16:33:00,40.8,25.0,30.25,WSW,242,5.0,7.0,53,0.02,,,0.17,weatherlink.com 1.10,2013-02-23 23:33:00,
2013-02-23 16:48:00,39.7,24.0,30.24,SE,143,6.0,9.0,54,0.02,,,0.18,weatherlink.com 1.10,2013-02-23 23:48:00,
2013-02-23 17:03:00,39.0,24.0,30.25,SSW,198,1.0,7.0,56,0.02,,,0.18,weatherlink.com 1.10,2013-02-24 00:03:00,
2013-02-23 17:18:00,38.6,24.0,30.25,SSW,194,4.0,9.0,55,0.01,,,0.18,weatherlink.com 1.10,2013-02-24 00:18:00,
2013-02-23 17:33:00,38.1,23.0,30.25,SW,215,0.0,8.0,56,0.01,,,0.18,weatherlink.com 1.10,2013-02-24 00:33:00,
2013-02-23 17:48:00,37.5,23.0,30.25,SSE,166,4.0,8.0,56,0.00,,,0.18,weatherlink.com 1.10,2013-02-24 00:48:00,
2013-02-23 18:03:00,36.8,23.0,30.26,SW,216,4.0,7.0,57,0.00,,,0.18,weatherlink.com 1.10,2013-02-24 01:03:00,
2013-02-23 18:18:00,35.9,23.0,30.27,SW,229,2.0,5.0,60,0.00,,,0.18,weatherlink.com 1.10,2013-02-24 01:18:00,
2013-02-23 18:33:00,35.2,23.0,30.27,SW,220,0.0,4.0,61,0.00,,,0.18,weatherlink.com 1.10,2013-02-24 01:33:00,
2013-02-23 18:48:00,34.8,22.0,30.28,WSW,240,2.0,7.0,61,0.00,,,0.18,weatherlink.com 1.10,2013-02-24 01:48:00,
2013-02-23 19:03:00,34.8,23.0,30.28,South,175,1.0,3.0,62,0.00,,,0.18,weatherlink.com 1.10,2013-02-24 02:03:00,
2013-02-23 19:18:00,34.3,24.0,30.28,South,176,2.0,2.0,65,0.00,,,0.18,weatherlink.com 1.10,2013-02-24 02:18:00,
2013-02-23 19:33:00,33.9,23.0,30.29,SSW,205,2.0,5.0,65,0.00,,,0.18,weatherlink.com 1.10,2013-02-24 02:33:00,
2013-02-23 19:48:00,33.4,23.0,30.29,West,269,2.0,5.0,65,0.00,,,0.18,weatherlink.com 1.10,2013-02-24 02:48:00,
2013-02-23 20:03:00,33.0,22.0,30.29,SSE,149,0.0,4.0,65,0.00,,,0.18,weatherlink.com 1.10,2013-02-24 03:03:00,
2013-02-23 20:18:00,32.6,22.0,30.29,South,178,4.0,8.0,65,0.00,,,0.18,weatherlink.com 1.10,2013-02-24 03:18:00,
2013-02-23 20:33:00,32.3,22.0,30.29,South,186,0.0,8.0,66,0.00,,,0.18,weatherlink.com 1.10,2013-02-24 03:33:00,
2013-02-23 20:48:00,32.1,22.0,30.29,South,176,0.0,6.0,67,0.00,,,0.18,weatherlink.com 1.10,2013-02-24 03:48:00,
2013-02-23 21:03:00,31.9,22.0,30.32,WNW,301,1.0,6.0,67,0.00,,,0.18,weatherlink.com 1.10,2013-02-24 04:03:00,
2013-02-23 21:19:00,31.1,22.0,30.32,North,4,1.0,5.0,69,0.00,,,0.18,weatherlink.com 1.10,2013-02-24 04:19:00,
2013-02-23 21:34:00,30.5,22.0,30.32,NNW,336,0.0,6.0,71,0.00,,,0.18,weatherlink.com 1.10,2013-02-24 04:34:00,
2013-02-23 21:49:00,29.8,22.0,30.32,NW,305,1.0,2.0,72,0.00,,,0.18,weatherlink.com 1.10,2013-02-24 04:49:00,
2013-02-23 22:04:00,29.3,22.0,30.32,WNW,282,0.0,6.0,75,0.00,,,0.18,weatherlink.com 1.10,2013-02-24 05:04:00,
2013-02-23 22:19:00,29.1,22.0,30.33,North,7,0.0,5.0,76,0.00,,,0.18,weatherlink.com 1.10,2013-02-24 05:19:00,
2013-02-23 22:34:00,28.2,22.0,30.33,NW,314,0.0,7.0,77,0.00,,,0.18,weatherlink.com 1.10,2013-02-24 05:34:00,
2013-02-23 22:49:00,27.0,20.0,30.34,North,360,0.0,9.0,74,0.00,,,0.18,weatherlink.com 1.10,2013-02-24 05:49:00,
2013-02-23 23:04:00,26.3,20.0,30.33,NNW,333,4.0,8.0,77,0.00,,,0.18,weatherlink.com 1.10,2013-02-24 06:04:00,
2013-02-23 23:19:00,25.9,20.0,30.34,NE,34,0.0,5.0,79,0.00,,,0.18,weatherlink.com 1.10,2013-02-24 06:19:00,
2013-02-23 23:34:00,25.4,20.0,30.33,NNW,347,1.0,2.0,81,0.00,,,0.18,weatherlink.com 1.10,2013-02-24 06:34:00,
2013-02-23 23:49:00,25.1,21.0,30.33,NNW,340,0.0,2.0,83,0.00,,,0.18,weatherlink.com 1.10,2013-02-24 06:49:00,